Time;durP1;ratioP1;P1;durP2;ratioP2;P2;SDS_P1;SDS_P2;PMS_P1;PMS_P2;Temp;Humidity;BMP_temperature;BMP_pressure;BME280_temperature;BME280_humidity;BME280_pressure;Samples;Min_cycle;Max_cycle;Signal;HPM_P1;HPM_P2
2022/11/15 00:00:55;;;;;;;18.30;11.90;;;;;;;6.00;92.64;100429.69;105600;1291;59380;-77
2022/11/15 00:03:24;;;;;;;17.00;11.90;;;;;;;6.00;93.09;100432.09;105260;1289;58968;-76
2022/11/15 00:05:51;;;;;;;16.70;11.60;;;;;;;6.03;93.30;100433.86;104107;1291;73133;-75
2022/11/15 00:08:17;;;;;;;18.50;11.60;;;;;;;6.05;93.37;100436.68;103819;1298;69890;-76
2022/11/15 00:10:55;;;;;;;18.60;11.80;;;;;;;6.07;93.56;100436.83;104664;1291;72765;-76
2022/11/15 00:13:21;;;;;;;16.80;11.10;;;;;;;6.08;93.47;100437.76;103907;1295;62905;-75
2022/11/15 00:15:48;;;;;;;18.50;12.30;;;;;;;6.09;93.55;100433.77;103903;1297;61818;-76
2022/11/15 00:18:15;;;;;;;19.30;12.70;;;;;;;6.11;93.59;100435.77;103759;1298;73157;-76
2022/11/15 00:20:42;;;;;;;19.00;11.90;;;;;;;6.12;93.50;100429.33;103924;1297;69566;-76
2022/11/15 00:23:09;;;;;;;18.10;11.90;;;;;;;6.13;93.45;100432.39;103938;1298;72631;-76
2022/11/15 00:25:36;;;;;;;16.40;11.60;;;;;;;6.12;93.52;100433.33;104266;1291;61194;-75
2022/11/15 00:28:03;;;;;;;17.40;11.40;;;;;;;6.13;93.46;100431.55;104531;1290;60516;-76
2022/11/15 00:30:30;;;;;;;15.10;10.90;;;;;;;6.13;93.64;100428.88;104442;1291;73207;-76
2022/11/15 00:32:56;;;;;;;17.40;11.10;;;;;;;6.15;93.73;100434.18;103836;1291;69671;-77
2022/11/15 00:35:23;;;;;;;16.80;11.30;;;;;;;6.17;93.85;100429.89;104027;1279;61424;-78
2022/11/15 00:37:49;;;;;;;15.90;10.90;;;;;;;6.19;93.87;100420.77;103898;1298;62203;-76
2022/11/15 00:40:16;;;;;;;16.20;11.20;;;;;;;6.21;94.00;100428.99;104076;1300;59625;-78
2022/11/15 00:42:42;;;;;;;15.00;10.50;;;;;;;6.24;94.05;100423.80;103914;1291;61246;-77
2022/11/15 00:45:09;;;;;;;18.60;10.90;;;;;;;6.26;93.97;100418.47;104388;1291;61373;-79
2022/11/15 00:47:36;;;;;;;15.20;10.30;;;;;;;6.27;94.15;100418.32;104261;1299;73194;-76
2022/11/15 00:50:03;;;;;;;14.00;9.90;;;;;;;6.28;94.02;100423.23;104053;1291;61303;-77
2022/11/15 00:52:30;;;;;;;13.00;10.10;;;;;;;6.26;93.73;100424.92;103961;1298;61413;-77
2022/11/15 00:54:56;;;;;;;13.00;9.90;;;;;;;6.26;93.91;100430.79;104144;1284;59396;-77
2022/11/15 00:57:22;;;;;;;14.10;10.20;;;;;;;6.27;93.97;100434.34;104243;1291;60866;-77
2022/11/15 00:59:49;;;;;;;15.80;9.60;;;;;;;6.31;94.25;100430.73;104372;1287;59526;-75
2022/11/15 01:02:15;;;;;;;15.90;10.10;;;;;;;6.37;94.55;100426.32;103852;1292;61636;-76
2022/11/15 01:04:42;;;;;;;13.20;9.80;;;;;;;6.42;94.38;100420.33;104250;1295;61331;-75
2022/11/15 01:07:08;;;;;;;13.30;9.70;;;;;;;6.46;94.17;100418.14;104693;1298;62523;-76
2022/11/15 01:09:35;;;;;;;15.00;9.80;;;;;;;6.56;94.88;100413.33;104208;1292;61311;-76
2022/11/15 01:12:02;;;;;;;14.90;10.20;;;;;;;6.69;95.71;100407.11;103828;1298;61379;-75
2022/11/15 01:14:28;;;;;;;13.00;9.70;;;;;;;6.80;95.86;100401.96;103728;1291;61359;-76
2022/11/15 01:16:55;;;;;;;15.70;9.80;;;;;;;6.91;95.91;100393.58;104279;1291;61343;-75
2022/11/15 01:19:21;;;;;;;12.50;9.60;;;;;;;7.02;96.31;100389.99;104045;1291;59748;-76
2022/11/15 01:21:51;;;;;;;13.10;9.50;;;;;;;7.12;96.74;100383.14;104326;1292;61319;-77
2022/11/15 01:24:18;;;;;;;14.20;9.30;;;;;;;7.22;96.52;100375.64;104010;1299;72883;-77
2022/11/15 01:26:44;;;;;;;13.20;9.00;;;;;;;7.28;96.45;100375.10;104383;1291;62531;-76
2022/11/15 01:29:11;;;;;;;14.00;9.30;;;;;;;7.33;95.97;100374.13;104232;1292;61394;-76
2022/11/15 01:31:37;;;;;;;12.90;9.00;;;;;;;7.34;95.54;100379.96;103833;1298;61391;-77
2022/11/15 01:34:04;;;;;;;12.40;8.40;;;;;;;7.32;95.43;100374.15;104063;1292;73038;-77
2022/11/15 01:36:31;;;;;;;12.00;9.00;;;;;;;7.32;95.30;100372.60;103912;1300;71132;-77
2022/11/15 01:38:58;;;;;;;12.50;8.90;;;;;;;7.33;95.43;100369.19;104169;1291;62674;-76
2022/11/15 01:41:31;;;;;;;11.70;8.80;;;;;;;7.36;95.14;100368.88;104203;1295;62853;-77
2022/11/15 01:44:33;;;;;;;12.70;9.00;;;;;;;7.38;95.40;100367.61;103995;1291;73119;-77
2022/11/15 01:47:03;;;;;;;11.90;8.80;;;;;;;7.42;95.42;100358.20;104282;1291;71005;-76
2022/11/15 01:49:33;;;;;;;16.90;9.70;;;;;;;7.46;94.64;100354.30;104191;1291;71195;-76
2022/11/15 01:52:01;;;;;;;14.40;9.70;;;;;;;7.47;94.69;100353.30;104020;1292;61355;-76
2022/11/15 01:54:29;;;;;;;15.70;10.60;;;;;;;7.45;94.10;100355.08;103869;1300;61296;-76
2022/11/15 01:57:01;;;;;;;14.30;9.90;;;;;;;7.42;93.74;100352.80;104218;1298;73067;-76
2022/11/15 01:59:28;;;;;;;14.80;8.80;;;;;;;7.37;93.31;100351.87;103908;1294;69692;-75
2022/11/15 02:01:55;;;;;;;13.90;9.20;;;;;;;7.30;93.13;100350.83;104176;1288;73095;-76
2022/11/15 02:04:33;;;;;;;15.60;9.30;;;;;;;7.25;92.71;100348.22;104266;1290;61687;-76
2022/11/15 02:07:03;;;;;;;13.20;9.20;;;;;;;7.19;92.72;100352.36;104367;1286;61203;-76
2022/11/15 02:09:30;;;;;;;13.00;9.10;;;;;;;7.12;92.75;100352.35;104071;1293;73840;-75
2022/11/15 02:11:57;;;;;;;12.40;8.90;;;;;;;7.05;92.31;100357.83;103965;1291;72646;-77
2022/11/15 02:14:27;;;;;;;13.20;9.60;;;;;;;7.00;92.60;100350.36;103899;1286;71127;-76
2022/11/15 02:17:24;;;;;;;11.50;9.00;;;;;;;6.93;92.45;100348.72;103877;1294;61226;-75
2022/11/15 02:20:13;;;;;;;12.10;8.90;;;;;;;6.83;92.38;100338.73;104047;1292;61315;-76
2022/11/15 02:22:52;;;;;;;13.00;9.50;;;;;;;6.74;92.35;100334.19;104172;1298;73158;-76
2022/11/15 02:25:27;;;;;;;15.10;9.80;;;;;;;6.70;92.93;100332.52;104257;1284;69744;-77
2022/11/15 02:28:26;;;;;;;13.20;9.70;;;;;;;6.68;92.84;100332.19;104011;1291;72395;-76
2022/11/15 02:31:02;;;;;;;13.80;9.70;;;;;;;6.67;93.18;100331.89;103860;1291;61286;-77
2022/11/15 02:34:02;;;;;;;17.70;10.40;;;;;;;6.67;93.37;100328.98;103853;1291;61206;-76
2022/11/15 02:36:47;;;;;;;20.80;11.40;;;;;;;6.65;93.35;100326.99;104022;1298;73115;-76
2022/11/15 02:39:25;;;;;;;17.90;10.60;;;;;;;6.64;93.46;100322.93;104299;1286;69936;-76
2022/11/15 02:42:03;;;;;;;21.20;11.40;;;;;;;6.61;93.18;100319.76;104478;1291;71755;-76
2022/11/15 02:44:45;;;;;;;20.90;10.70;;;;;;;6.55;93.10;100312.23;103931;1296;61319;-76
2022/11/15 02:47:16;;;;;;;17.10;10.30;;;;;;;6.51;93.05;100314.77;103761;1298;61359;-76
2022/11/15 02:49:48;;;;;;;14.80;10.90;;;;;;;6.46;93.17;100312.29;103968;1291;73280;-76
2022/11/15 02:52:22;;;;;;;13.90;10.30;;;;;;;6.41;93.07;100307.71;103947;1300;69547;-76
2022/11/15 02:54:59;;;;;;;15.20;10.60;;;;;;;6.37;93.04;100311.62;104296;1293;71738;-76
2022/11/15 02:57:41;;;;;;;14.90;10.20;;;;;;;6.35;93.41;100310.05;103905;1299;61729;-76
2022/11/15 03:00:15;;;;;;;18.30;10.90;;;;;;;6.32;93.47;100303.52;104293;1291;61203;-76
2022/11/15 03:03:12;;;;;;;15.90;11.20;;;;;;;6.30;93.81;100304.80;105006;1284;73609;-76
2022/11/15 03:05:51;;;;;;;16.00;9.70;;;;;;;6.27;94.34;100302.82;104311;1288;70170;-77
2022/11/15 03:08:39;;;;;;;15.30;11.20;;;;;;;6.29;95.91;100304.69;104594;1289;70990;-77
2022/11/15 03:11:15;;;;;;;14.90;10.60;;;;;;;6.34;96.11;100297.38;104424;1299;63147;-77
2022/11/15 03:14:39;;;;;;;14.40;11.10;;;;;;;6.38;96.14;100298.52;104339;1294;60419;-77
2022/11/15 03:17:43;;;;;;;15.50;10.70;;;;;;;6.44;96.25;100294.89;103803;1304;73533;-77
2022/11/15 03:20:11;;;;;;;15.00;11.30;;;;;;;6.50;96.29;100299.95;103466;1297;69325;-77
2022/11/15 03:22:43;;;;;;;15.40;10.40;;;;;;;6.53;96.01;100298.88;104090;1294;71223;-77
2022/11/15 03:25:15;;;;;;;15.10;10.70;;;;;;;6.58;96.18;100296.98;104031;1286;61973;-76
2022/11/15 03:27:48;;;;;;;14.70;10.00;;;;;;;6.60;96.24;100290.33;104198;1291;61175;-78
2022/11/15 03:30:15;;;;;;;13.80;10.50;;;;;;;6.62;95.72;100292.42;104610;1287;73751;-77
2022/11/15 03:32:47;;;;;;;13.50;9.50;;;;;;;6.62;95.56;100299.21;104272;1299;71153;-75
2022/11/15 03:35:27;;;;;;;13.60;9.10;;;;;;;6.61;95.30;100295.52;103974;1299;71573;-76
2022/11/15 03:37:59;;;;;;;13.70;9.80;;;;;;;6.59;95.11;100291.11;104018;1277;62048;-76
2022/11/15 03:40:35;;;;;;;14.00;10.10;;;;;;;6.58;94.89;100287.23;104668;1299;61324;-75
2022/11/15 03:43:27;;;;;;;15.60;10.20;;;;;;;6.54;94.86;100284.03;103963;1299;73422;-76
2022/11/15 03:46:24;;;;;;;14.30;9.50;;;;;;;6.50;94.70;100290.92;104238;1292;71165;-77
2022/11/15 03:48:56;;;;;;;14.00;9.40;;;;;;;6.46;94.64;100290.31;104244;1285;71210;-75
2022/11/15 03:51:23;;;;;;;13.50;9.70;;;;;;;6.42;94.47;100293.23;104244;1293;59585;-76
2022/11/15 03:53:50;;;;;;;15.00;9.90;;;;;;;6.38;94.81;100296.58;104129;1292;60067;-76
2022/11/15 03:56:16;;;;;;;12.80;9.20;;;;;;;6.37;95.18;100297.98;104584;1289;74430;-76
2022/11/15 03:58:43;;;;;;;13.00;9.80;;;;;;;6.36;95.58;100298.17;103721;1299;69390;-75
2022/11/15 04:01:09;;;;;;;14.90;11.00;;;;;;;6.38;96.45;100297.63;104366;1298;61384;-76
2022/11/15 04:03:36;;;;;;;15.60;9.80;;;;;;;6.41;96.88;100299.15;103811;1298;61386;-77
2022/11/15 04:06:02;;;;;;;16.70;11.00;;;;;;;6.45;97.80;100295.48;104194;1291;61266;-76
2022/11/15 04:08:29;;;;;;;18.90;11.10;;;;;;;6.53;98.12;100297.20;104380;1299;61264;-77
2022/11/15 04:10:55;;;;;;;17.60;11.70;;;;;;;6.60;98.52;100294.83;104169;1292;61258;-76
2022/11/15 04:13:22;;;;;;;19.60;11.00;;;;;;;6.68;99.15;100294.34;104023;1291;62169;-76
2022/11/15 04:15:48;;;;;;;19.70;11.40;;;;;;;6.78;99.80;100292.52;104057;1284;61370;-76
2022/11/15 04:18:15;;;;;;;16.80;10.10;;;;;;;6.85;99.91;100288.91;104151;1294;60392;-77
2022/11/15 04:26:32;;;;;;;16.00;10.20;;;;;;;7.27;100.00;100291.52;103378;1303;72481;-77
2022/11/15 04:31:43;;;;;;;15.70;9.30;;;;;;;7.48;100.00;100289.95;103674;1292;61174;-77
2022/11/15 04:34:10;;;;;;;14.90;10.20;;;;;;;7.59;100.00;100286.39;104230;1291;61292;-76
2022/11/15 04:39:22;;;;;;;13.80;9.00;;;;;;;7.78;100.00;100292.45;103994;1291;71270;-77
2022/11/15 04:41:48;;;;;;;12.90;8.60;;;;;;;7.81;99.98;100294.86;103972;1294;59420;-77
2022/11/15 04:44:16;;;;;;;11.50;7.90;;;;;;;7.87;99.97;100296.91;104334;1293;59139;-78
2022/11/15 04:46:42;;;;;;;15.80;8.10;;;;;;;7.91;99.99;100300.14;104499;1293;73172;-77
2022/11/15 04:49:09;;;;;;;13.60;8.10;;;;;;;7.93;99.65;100300.55;104437;1293;59993;-78
2022/11/15 04:51:35;;;;;;;12.10;8.10;;;;;;;7.94;99.05;100299.66;104055;1291;61296;-77
2022/11/15 04:54:02;;;;;;;12.90;8.80;;;;;;;7.93;98.51;100305.23;103989;1290;61233;-77
2022/11/15 04:56:28;;;;;;;10.80;7.60;;;;;;;7.92;98.35;100307.98;104370;1292;61355;-77
2022/11/15 04:58:55;;;;;;;10.70;6.90;;;;;;;7.90;98.32;100309.45;104104;1298;61236;-78
2022/11/15 05:01:21;;;;;;;10.40;7.20;;;;;;;7.88;97.88;100311.39;104029;1284;61594;-76
2022/11/15 05:06:33;;;;;;;9.20;6.80;;;;;;;7.85;97.65;100309.19;104550;1292;61170;-76
2022/11/15 05:09:00;;;;;;;10.70;7.00;;;;;;;7.87;98.10;100314.63;104691;1290;59358;-75
2022/11/15 05:11:29;;;;;;;11.00;6.70;;;;;;;7.90;98.15;100313.96;103741;1299;61258;-75
2022/11/15 05:13:56;;;;;;;12.40;7.10;;;;;;;7.95;98.48;100315.05;104220;1291;71411;-76
2022/11/15 05:16:22;;;;;;;8.80;6.30;;;;;;;7.99;98.54;100310.69;104249;1298;72411;-76
2022/11/15 05:18:53;;;;;;;9.70;6.30;;;;;;;8.03;98.43;100314.14;103946;1294;61268;-78
2022/11/15 05:21:20;;;;;;;8.40;6.60;;;;;;;8.07;98.57;100318.67;104319;1297;61344;-76
2022/11/15 05:23:47;;;;;;;8.30;6.40;;;;;;;8.12;98.59;100318.95;104202;1284;73393;-76
2022/11/15 05:26:15;;;;;;;10.90;7.50;;;;;;;8.18;98.75;100323.10;104190;1292;69109;-77
2022/11/15 05:28:42;;;;;;;9.50;6.70;;;;;;;8.25;98.65;100324.48;104584;1299;71017;-76
2022/11/15 05:31:13;;;;;;;9.20;6.40;;;;;;;8.31;98.63;100320.23;104072;1286;61829;-75
2022/11/15 05:33:42;;;;;;;8.20;6.30;;;;;;;8.38;98.35;100323.91;103972;1292;61285;-78
2022/11/15 05:36:29;;;;;;;9.50;6.10;;;;;;;8.43;98.55;100318.58;104386;1291;77321;-78
2022/11/15 05:38:56;;;;;;;9.70;5.40;;;;;;;8.48;98.27;100321.70;104002;1298;69167;-78
2022/11/15 05:41:37;;;;;;;8.20;4.90;;;;;;;8.55;98.20;100318.01;104155;1298;71139;-76
2022/11/15 05:44:07;;;;;;;8.70;5.10;;;;;;;8.61;97.97;100321.52;104273;1290;61310;-76
2022/11/15 05:46:35;;;;;;;9.40;5.50;;;;;;;8.66;97.57;100319.55;104638;1291;59955;-75
2022/11/15 05:49:01;;;;;;;12.10;6.60;;;;;;;8.73;97.31;100318.66;103796;1292;73458;-75
2022/11/15 05:51:29;;;;;;;12.90;7.00;;;;;;;8.77;96.99;100316.75;104246;1294;69494;-75
2022/11/15 05:53:57;;;;;;;12.20;7.30;;;;;;;8.83;96.95;100317.30;104044;1298;72419;-76
2022/11/15 05:56:25;;;;;;;10.00;6.00;;;;;;;8.88;96.48;100310.02;104499;1300;61270;-76
2022/11/15 05:58:55;;;;;;;7.40;5.10;;;;;;;8.92;96.34;100306.07;104024;1285;61192;-74
2022/11/15 06:01:26;;;;;;;6.50;4.70;;;;;;;8.94;95.97;100308.43;104244;1299;72523;-76
2022/11/15 06:03:53;;;;;;;6.00;4.70;;;;;;;8.97;95.72;100308.46;104310;1294;70420;-76
2022/11/15 06:06:20;;;;;;;5.70;4.40;;;;;;;9.02;96.13;100311.39;104368;1295;72605;-77
2022/11/15 06:08:47;;;;;;;7.70;4.40;;;;;;;9.09;96.04;100312.09;103945;1298;61746;-76
2022/11/15 06:11:14;;;;;;;7.40;4.10;;;;;;;9.16;95.65;100307.91;103743;1295;59562;-74
2022/11/15 06:13:40;;;;;;;7.60;4.10;;;;;;;9.23;95.55;100311.73;104364;1291;74451;-75
2022/11/15 06:16:07;;;;;;;8.90;4.70;;;;;;;9.27;95.16;100310.55;103873;1298;60753;-74
2022/11/15 06:18:34;;;;;;;7.70;4.60;;;;;;;9.31;94.86;100311.13;104189;1298;61276;-74
2022/11/15 06:21:01;;;;;;;6.70;4.50;;;;;;;9.35;94.54;100309.47;103996;1291;59092;-75
2022/11/15 06:23:28;;;;;;;6.40;4.40;;;;;;;9.37;93.99;100311.32;104071;1298;60213;-74
2022/11/15 06:25:58;;;;;;;5.50;4.10;;;;;;;9.37;93.59;100314.49;104592;1291;72716;-75
2022/11/15 06:28:28;;;;;;;6.40;4.40;;;;;;;9.37;93.18;100311.91;104315;1290;69308;-75
2022/11/15 06:30:54;;;;;;;6.20;4.30;;;;;;;9.34;92.88;100305.11;103967;1290;236791;-75
2022/11/15 06:33:21;;;;;;;7.50;4.70;;;;;;;9.32;92.71;100303.85;104290;1297;61417;-74
2022/11/15 06:35:47;;;;;;;5.40;4.10;;;;;;;9.28;92.52;100310.09;103775;1291;59339;-75
2022/11/15 06:38:13;;;;;;;7.40;4.70;;;;;;;9.26;92.82;100310.09;103176;1294;61314;-76
2022/11/15 06:40:40;;;;;;;7.40;4.80;;;;;;;9.22;92.65;100311.81;103238;1293;60273;-76
2022/11/15 06:43:07;;;;;;;6.00;4.30;;;;;;;9.17;92.66;100313.44;103824;1299;61865;-76
2022/11/15 06:45:33;;;;;;;7.20;4.50;;;;;;;9.13;92.72;100313.63;104026;1291;59679;-76
2022/11/15 06:48:00;;;;;;;6.90;5.00;;;;;;;9.08;93.06;100320.71;103854;1291;61200;-76
2022/11/15 06:50:27;;;;;;;7.80;5.10;;;;;;;9.03;93.16;100321.99;103162;1294;72216;-75
2022/11/15 06:52:54;;;;;;;6.70;4.40;;;;;;;8.99;93.74;100323.51;104256;1299;59387;-75
2022/11/15 06:55:21;;;;;;;7.50;4.80;;;;;;;8.97;94.07;100324.36;103952;1292;72300;-74
2022/11/15 06:57:49;;;;;;;6.60;4.30;;;;;;;9.00;94.63;100321.24;103616;1293;59503;-76
2022/11/15 07:00:18;;;;;;;6.20;4.20;;;;;;;9.05;94.94;100319.66;103696;1293;61391;-76
2022/11/15 07:02:46;;;;;;;6.20;4.20;;;;;;;9.11;94.81;100325.33;104502;1294;72326;-76
2022/11/15 07:05:14;;;;;;;8.60;4.40;;;;;;;9.18;94.94;100328.59;103198;1294;69554;-75
2022/11/15 07:07:40;;;;;;;7.40;4.20;;;;;;;9.27;94.83;100330.67;103765;1299;71544;-75
2022/11/15 07:10:08;;;;;;;6.00;4.30;;;;;;;9.37;94.82;100333.23;104278;1298;61392;-76
2022/11/15 07:12:35;;;;;;;6.90;4.50;;;;;;;9.47;93.97;100331.27;103718;1300;61210;-75
2022/11/15 07:15:01;;;;;;;5.10;3.60;;;;;;;9.52;93.29;100332.05;103108;1298;61757;-75
2022/11/15 07:17:28;;;;;;;6.70;4.20;;;;;;;9.55;92.69;100326.44;103090;1293;71799;-75
2022/11/15 07:19:54;;;;;;;5.00;3.80;;;;;;;9.57;92.39;100328.64;104134;1289;61407;-75
2022/11/15 07:22:21;;;;;;;6.30;3.70;;;;;;;9.57;91.84;100329.14;103288;1300;61396;-75
2022/11/15 07:24:47;;;;;;;8.10;4.10;;;;;;;9.58;91.76;100333.11;103419;1299;61398;-76
2022/11/15 07:27:14;;;;;;;5.50;3.30;;;;;;;9.58;91.59;100330.29;104146;1293;58889;-75
2022/11/15 07:29:40;;;;;;;7.40;4.10;;;;;;;9.59;91.97;100329.33;103874;1293;61124;-75
2022/11/15 07:32:07;;;;;;;5.60;3.20;;;;;;;9.62;92.17;100330.10;103460;1295;61752;-74
2022/11/15 07:34:33;;;;;;;6.00;3.80;;;;;;;9.62;92.15;100328.64;103102;1300;61529;-74
2022/11/15 07:37:00;;;;;;;5.70;3.60;;;;;;;9.64;92.32;100331.86;103451;1298;61373;-74
2022/11/15 07:39:26;;;;;;;6.50;3.30;;;;;;;9.69;92.33;100339.45;104106;1283;61273;-74
2022/11/15 07:42:52;;;;;;;6.30;3.80;;;;;;;9.74;92.19;100343.15;103446;1301;61428;-74
2022/11/15 07:44:39;;;;;;;5.70;3.80;;;;;;;9.79;92.09;100344.79;104081;1292;71854;-74
2022/11/15 07:47:06;;;;;;;6.40;3.90;;;;;;;9.84;91.90;100342.39;103358;1291;61380;-74
2022/11/15 07:49:32;;;;;;;6.20;3.60;;;;;;;9.86;91.77;100344.27;103441;1294;61530;-74
2022/11/15 07:51:58;;;;;;;6.60;4.00;;;;;;;9.88;91.56;100343.33;103482;1284;61841;-76
2022/11/15 07:54:25;;;;;;;5.70;4.20;;;;;;;9.89;91.68;100344.98;103405;1299;61347;-75
2022/11/15 07:56:51;;;;;;;6.10;3.70;;;;;;;9.89;91.38;100341.77;103885;1294;61415;-74
2022/11/15 07:59:19;;;;;;;6.60;3.70;;;;;;;9.90;91.30;100337.58;103792;1292;61694;-74
2022/11/15 08:01:45;;;;;;;6.00;3.80;;;;;;;9.89;91.01;100335.01;103728;1293;59738;-74
2022/11/15 08:04:12;;;;;;;4.80;3.60;;;;;;;9.90;90.99;100329.84;103829;1294;75031;-73
2022/11/15 08:06:38;;;;;;;6.00;3.90;;;;;;;9.92;90.90;100331.86;103355;1298;61968;-74
2022/11/15 08:09:04;;;;;;;5.70;3.80;;;;;;;9.92;90.85;100332.32;103730;1300;61315;-74
2022/11/15 08:11:31;;;;;;;6.30;4.00;;;;;;;9.95;90.77;100329.96;103243;1297;61259;-74
2022/11/15 08:13:59;;;;;;;5.00;3.60;;;;;;;9.99;90.68;100325.73;103666;1290;61259;-74
2022/11/15 08:16:25;;;;;;;6.30;3.80;;;;;;;10.04;90.64;100329.08;103596;1299;74661;-74
2022/11/15 08:18:51;;;;;;;7.10;3.70;;;;;;;10.08;90.22;100323.99;104044;1296;61417;-75
2022/11/15 08:21:20;;;;;;;5.40;3.50;;;;;;;10.13;90.23;100327.13;103087;1299;61346;-73
2022/11/15 08:23:47;;;;;;;5.20;3.40;;;;;;;10.18;90.02;100329.49;103589;1293;60024;-75
2022/11/15 08:26:14;;;;;;;5.00;3.80;;;;;;;10.23;89.85;100325.20;103238;1297;61302;-74
2022/11/15 08:28:41;;;;;;;5.10;3.50;;;;;;;10.26;89.57;100324.84;103626;1293;74577;-75
2022/11/15 08:31:14;;;;;;;4.40;3.50;;;;;;;10.29;89.55;100328.77;103799;1293;69704;-74
2022/11/15 08:33:40;;;;;;;6.10;3.90;;;;;;;10.33;89.42;100329.34;103707;1290;71398;-75
2022/11/15 08:36:13;;;;;;;5.70;3.50;;;;;;;10.37;89.41;100333.44;103923;1297;61302;-75
2022/11/15 08:38:39;;;;;;;5.20;3.40;;;;;;;10.46;89.29;100339.10;103836;1300;61328;-75
2022/11/15 08:41:06;;;;;;;5.00;3.50;;;;;;;10.55;88.96;100340.83;103350;1300;61284;-76
2022/11/15 08:43:33;;;;;;;5.80;3.60;;;;;;;10.65;88.63;100333.65;103319;1294;70013;-75
2022/11/15 08:46:00;;;;;;;5.00;3.50;;;;;;;10.75;88.67;100322.91;103570;1291;71005;-75
2022/11/15 08:48:26;;;;;;;5.20;3.30;;;;;;;10.86;88.14;100322.55;103529;1292;61792;-73
2022/11/15 08:50:55;;;;;;;6.10;3.40;;;;;;;10.94;87.86;100322.78;104186;1302;61285;-75
2022/11/15 08:53:21;;;;;;;5.20;3.30;;;;;;;11.02;87.49;100322.42;103895;1301;73301;-73
2022/11/15 08:55:48;;;;;;;5.50;3.50;;;;;;;11.13;87.22;100324.91;103389;1302;70931;-75
2022/11/15 08:58:14;;;;;;;4.40;3.30;;;;;;;11.23;86.91;100325.59;103401;1296;61322;-74
2022/11/15 09:00:41;;;;;;;5.60;3.10;;;;;;;11.34;86.70;100323.70;103377;1299;61275;-73
2022/11/15 09:03:09;;;;;;;5.10;3.30;;;;;;;11.43;86.15;100324.23;103464;1301;61232;-74
2022/11/15 09:05:37;;;;;;;3.80;2.60;;;;;;;11.54;85.85;100321.66;103632;1293;73239;-74
2022/11/15 09:08:04;;;;;;;4.80;3.30;;;;;;;11.61;85.63;100320.52;103737;1299;70168;-75
2022/11/15 09:10:51;;;;;;;5.50;3.30;;;;;;;11.73;85.33;100323.81;104458;1300;72579;-75
2022/11/15 09:13:17;;;;;;;4.70;3.00;;;;;;;11.84;85.01;100324.42;103756;1294;62123;-74
2022/11/15 09:15:44;;;;;;;5.60;2.90;;;;;;;11.93;84.08;100324.77;105248;1296;59052;-75
2022/11/15 09:18:10;;;;;;;4.80;2.90;;;;;;;12.03;84.17;100322.45;104606;1292;60193;-73
2022/11/15 09:20:37;;;;;;;5.20;3.00;;;;;;;12.10;83.63;100321.52;103047;1301;61223;-76
2022/11/15 09:23:04;;;;;;;4.60;3.00;;;;;;;12.18;83.58;100314.33;103424;1292;61353;-74
2022/11/15 09:25:31;;;;;;;6.20;3.40;;;;;;;12.25;83.09;100313.13;103440;1303;61204;-74
2022/11/15 09:27:58;;;;;;;4.90;3.30;;;;;;;12.36;83.57;100313.70;105357;1292;59316;-74
2022/11/15 09:30:26;;;;;;;4.40;3.10;;;;;;;12.47;82.96;100311.55;104348;1293;61202;-75
2022/11/15 09:32:52;;;;;;;4.80;3.20;;;;;;;12.58;83.02;100313.27;103612;1290;70492;-75
2022/11/15 09:35:19;;;;;;;4.90;2.70;;;;;;;12.65;81.88;100316.88;103290;1300;63998;-75
2022/11/15 09:37:45;;;;;;;3.60;2.50;;;;;;;12.71;81.40;100318.08;103550;1300;61388;-74
2022/11/15 09:40:16;;;;;;;4.70;2.90;;;;;;;12.77;81.05;100322.05;103450;1299;61374;-74
2022/11/15 09:42:52;;;;;;;5.80;2.60;;;;;;;12.87;80.84;100317.99;102969;1299;74717;-74
2022/11/15 09:45:30;;;;;;;5.90;2.80;;;;;;;12.96;80.50;100317.17;103289;1301;69555;-75
2022/11/15 09:48:35;;;;;;;4.70;3.00;;;;;;;13.03;80.21;100316.11;104297;1301;71673;-74
2022/11/15 09:51:04;;;;;;;6.00;3.00;;;;;;;13.13;79.87;100316.73;103580;1293;62397;-75
2022/11/15 09:53:31;;;;;;;5.00;3.10;;;;;;;13.20;79.58;100313.58;103079;1297;61154;-74
2022/11/15 09:56:22;;;;;;;3.90;2.80;;;;;;;13.29;79.51;100310.63;103564;1300;73929;-74
2022/11/15 09:59:31;;;;;;;3.60;2.50;;;;;;;13.37;78.76;100305.85;103513;1297;72846;-74
2022/11/15 10:02:15;;;;;;;5.40;3.00;;;;;;;13.47;77.93;100309.23;103168;1299;71860;-74
2022/11/15 10:04:42;;;;;;;5.30;2.90;;;;;;;13.51;77.24;100306.16;104175;1299;61275;-75
2022/11/15 10:07:42;;;;;;;4.80;3.00;;;;;;;13.53;77.23;100307.02;104377;1293;59015;-74
2022/11/15 10:10:25;;;;;;;6.50;2.60;;;;;;;13.60;77.52;100305.02;103088;1297;74794;-74
2022/11/15 10:12:53;;;;;;;4.60;2.60;;;;;;;13.65;77.11;100300.42;103141;1294;72578;-76
2022/11/15 10:15:22;;;;;;;4.00;2.30;;;;;;;13.67;77.13;100298.75;103828;1300;71176;-74
2022/11/15 10:17:51;;;;;;;4.90;3.00;;;;;;;13.69;76.75;100294.49;103845;1297;62245;-74
2022/11/15 10:20:26;;;;;;;5.20;2.70;;;;;;;13.69;76.77;100291.37;103104;1294;61344;-74
2022/11/15 10:22:56;;;;;;;5.00;2.80;;;;;;;13.73;76.59;100292.02;104266;1295;74680;-75
2022/11/15 10:25:25;;;;;;;4.10;2.80;;;;;;;13.82;76.44;100291.53;103504;1292;70890;-74
2022/11/15 10:27:55;;;;;;;5.50;2.70;;;;;;;13.89;75.73;100284.39;103357;1303;71506;-74
2022/11/15 10:30:23;;;;;;;4.40;2.60;;;;;;;13.97;75.20;100288.02;102730;1294;61440;-74
2022/11/15 10:32:49;;;;;;;5.10;2.30;;;;;;;14.01;74.57;100286.30;103209;1301;63224;-74
2022/11/15 10:35:23;;;;;;;5.50;2.50;;;;;;;14.06;74.29;100287.28;103958;1292;73150;-73
2022/11/15 10:37:49;;;;;;;5.50;2.50;;;;;;;14.12;73.54;100291.59;103282;1296;70108;-74
2022/11/15 10:40:23;;;;;;;3.90;2.50;;;;;;;14.19;73.56;100285.00;104592;1294;72444;-75
2022/11/15 10:43:14;;;;;;;5.10;2.70;;;;;;;14.28;73.43;100286.66;103920;1296;61316;-74
2022/11/15 10:45:41;;;;;;;5.10;2.30;;;;;;;14.31;72.38;100277.74;104156;1299;61319;-74
2022/11/15 10:48:14;;;;;;;4.40;2.20;;;;;;;14.30;72.30;100278.89;103008;1292;73305;-73
2022/11/15 10:50:46;;;;;;;5.00;2.80;;;;;;;14.33;72.41;100280.13;103059;1297;69668;-73
2022/11/15 10:53:37;;;;;;;5.50;2.70;;;;;;;14.39;72.45;100275.35;103396;1300;71610;-73
2022/11/15 10:56:08;;;;;;;3.80;2.50;;;;;;;14.47;72.15;100269.02;104011;1295;61142;-75
2022/11/15 10:58:40;;;;;;;3.50;2.50;;;;;;;14.57;71.93;100263.63;104149;1293;61236;-74
2022/11/15 11:01:13;;;;;;;4.10;2.50;;;;;;;14.73;72.19;100259.88;103992;1300;73291;-74
2022/11/15 11:03:41;;;;;;;4.30;2.60;;;;;;;14.94;71.79;100254.27;103570;1299;70494;-74
2022/11/15 11:06:17;;;;;;;4.40;2.50;;;;;;;15.10;71.28;100249.55;104020;1297;72694;-74
2022/11/15 11:08:56;;;;;;;2.90;2.20;;;;;;;15.26;69.74;100252.48;102908;1294;62031;-73
2022/11/15 11:11:23;;;;;;;3.70;2.40;;;;;;;15.54;69.06;100250.14;103222;1295;62075;-73
2022/11/15 11:13:50;;;;;;;3.30;2.30;;;;;;;15.81;67.70;100251.19;103469;1299;73336;-73
2022/11/15 11:16:31;;;;;;;4.30;2.50;;;;;;;16.10;67.00;100250.39;104460;1292;69583;-74
2022/11/15 11:19:22;;;;;;;5.50;2.40;;;;;;;16.37;66.47;100252.48;104015;1297;72693;-73
2022/11/15 11:22:24;;;;;;;4.50;2.70;;;;;;;16.73;66.28;100249.67;104254;1302;61878;-75
2022/11/15 11:25:14;;;;;;;4.20;2.30;;;;;;;16.91;64.71;100250.83;103273;1305;61509;-75
2022/11/15 11:28:19;;;;;;;3.10;2.10;;;;;;;16.84;63.25;100246.50;103062;1291;73846;-74
2022/11/15 11:31:03;;;;;;;4.30;2.00;;;;;;;16.94;63.20;100238.90;104034;1292;69543;-73
2022/11/15 11:33:36;;;;;;;4.40;2.10;;;;;;;17.17;61.84;100232.02;104059;1298;73364;-74
2022/11/15 11:36:23;;;;;;;4.80;2.30;;;;;;;17.34;61.28;100223.50;103905;1296;61824;-74
2022/11/15 11:38:58;;;;;;;3.90;1.90;;;;;;;17.45;60.39;100221.25;103435;1298;61286;-75
2022/11/15 11:41:30;;;;;;;3.50;2.30;;;;;;;17.43;59.87;100216.38;103625;1297;73256;-74
2022/11/15 11:44:23;;;;;;;5.00;2.50;;;;;;;17.40;59.72;100216.77;104046;1300;69752;-74
2022/11/15 11:47:18;;;;;;;4.10;2.10;;;;;;;17.36;59.69;100217.32;103059;1300;72286;-73
2022/11/15 11:49:51;;;;;;;3.50;2.00;;;;;;;17.46;59.91;100219.83;103868;1291;61321;-74